Panamint Springs, California
Current Conditions -  °F | °C
As of 11:56 PM on Wednesday 17 Dec 2014 (Local Time) from KBIH Reporting Station
Clear Clear  
Wind Chill: 23°   Ceiling: Unl
Heat Index: 28°   Visibility: 10mi
Dew Point: 25°   Wind: 5mph
Humidity: 88%   Direction: 340°NNW
Pressure: 30.07"   Gusts: NA
Location:  36.6126°N, 118.162°W
Report Text: KBIH 180756Z AUTO 34004KT 10SM CLR M02/M04 A3007 RMK AO2 SLP178 T10221039 401111022
Loading
Personal Weather Stations






























Interactive Weather Map New forecast layout! Learn more

10-Day Weather Forecast

Advertisements
Track Severe Weather on mobile